Time;durP1;ratioP1;P1;durP2;ratioP2;P2;SDS_P1;SDS_P2;PMS_P1;PMS_P2;Temp;Humidity;BMP_temperature;BMP_pressure;BME280_temperature;BME280_humidity;BME280_pressure;Samples;Min_cycle;Max_cycle;Signal;HPM_P1;HPM_P2
2021/06/16 00:01:45;;;;;;;5.70;3.08;;;19.40;88.00;;;;;;4986803;28;20403;-62
2021/06/16 00:04:11;;;;;;;6.72;2.70;;;19.40;88.30;;;;;;4989056;28;20531;-62
2021/06/16 00:06:36;;;;;;;4.90;2.80;;;19.50;88.30;;;;;;4985334;28;20022;-63
2021/06/16 00:09:04;;;;;;;5.10;2.65;;;19.40;88.30;;;;;;4987670;28;20041;-62
2021/06/16 00:11:29;;;;;;;4.50;2.55;;;19.40;88.70;;;;;;4986335;28;20045;-63
2021/06/16 00:13:55;;;;;;;7.32;2.83;;;19.40;89.10;;;;;;4986977;28;20027;-63
2021/06/16 00:16:20;;;;;;;5.32;3.22;;;19.30;89.80;;;;;;4996337;28;20484;-63
2021/06/16 00:18:46;;;;;;;7.63;3.15;;;19.30;90.00;;;;;;4991819;28;20078;-62
2021/06/16 00:21:13;;;;;;;5.78;2.85;;;19.30;90.10;;;;;;4991297;28;20034;-62
2021/06/16 00:23:38;;;;;;;5.43;2.65;;;19.20;90.40;;;;;;4992781;28;20562;-62
2021/06/16 00:26:04;;;;;;;5.20;2.70;;;19.20;90.50;;;;;;4950368;28;20108;-61
2021/06/16 00:28:30;;;;;;;7.05;2.67;;;19.10;90.80;;;;;;4978673;28;20503;-62
2021/06/16 00:30:55;;;;;;;5.45;2.80;;;19.10;91.10;;;;;;4989502;28;20494;-63
2021/06/16 00:33:21;;;;;;;5.82;2.55;;;19.00;91.60;;;;;;4983989;28;20033;-63
2021/06/16 00:35:47;;;;;;;5.00;2.65;;;18.90;91.90;;;;;;4982500;28;20030;-63
2021/06/16 00:38:12;;;;;;;7.90;2.92;;;18.90;92.00;;;;;;4984619;28;20022;-61
2021/06/16 00:40:38;;;;;;;4.38;3.13;;;18.80;92.30;;;;;;4986276;28;20118;-63
2021/06/16 00:43:04;;;;;;;7.63;3.40;;;18.80;92.50;;;;;;4988257;28;20058;-61
2021/06/16 00:45:30;;;;;;;4.50;3.05;;;18.80;92.80;;;;;;4990856;28;20291;-62
2021/06/16 00:47:56;;;;;;;7.60;2.80;;;18.70;93.40;;;;;;4983391;28;20089;-62
2021/06/16 00:50:34;;;;;;;7.95;3.10;;;18.50;94.00;;;;;;4994474;28;20027;-61
2021/06/16 00:53:00;;;;;;;7.50;2.75;;;18.50;94.10;;;;;;4980902;28;20033;-63
2021/06/16 00:55:26;;;;;;;5.90;3.08;;;18.50;94.50;;;;;;4990361;28;20117;-62
2021/06/16 00:57:52;;;;;;;5.55;3.45;;;18.40;94.70;;;;;;4990599;28;20510;-62
2021/06/16 01:00:21;;;;;;;5.13;3.25;;;18.40;95.00;;;;;;4992420;28;20022;-62
2021/06/16 01:03:16;;;;;;;5.07;3.10;;;18.30;95.10;;;;;;4992202;28;20116;-62
2021/06/16 01:05:49;;;;;;;4.93;3.38;;;18.30;95.60;;;;;;4963411;28;20058;-63
2021/06/16 01:08:26;;;;;;;10.57;4.10;;;18.30;95.80;;;;;;4986837;28;20049;-63
2021/06/16 01:10:53;;;;;;;7.93;3.13;;;18.30;95.90;;;;;;4990326;28;20114;-63
2021/06/16 01:13:26;;;;;;;11.25;3.15;;;18.20;96.20;;;;;;4987115;28;20087;-61
2021/06/16 01:16:00;;;;;;;8.82;3.63;;;18.20;96.80;;;;;;4998777;28;20505;-62
2021/06/16 01:18:27;;;;;;;6.05;2.97;;;18.10;97.00;;;;;;4995447;28;20025;-63
2021/06/16 01:20:56;;;;;;;7.60;3.33;;;18.10;97.40;;;;;;4995025;28;20027;-61
2021/06/16 01:23:44;;;;;;;5.38;3.50;;;18.10;97.50;;;;;;4992758;28;20373;-62
2021/06/16 01:26:21;;;;;;;8.27;3.67;;;18.10;97.70;;;;;;4987076;28;20034;-63
2021/06/16 01:28:49;;;;;;;10.82;3.80;;;18.10;97.70;;;;;;4987916;28;20026;-62
2021/06/16 01:31:18;;;;;;;5.40;3.20;;;18.20;97.60;;;;;;4997181;28;20027;-63
2021/06/16 01:33:45;;;;;;;6.47;3.58;;;18.30;97.70;;;;;;4993293;28;20030;-62
2021/06/16 01:36:12;;;;;;;5.28;3.60;;;18.30;97.80;;;;;;4991940;28;20034;-62
2021/06/16 01:38:38;;;;;;;5.53;3.30;;;18.30;98.20;;;;;;4993409;28;20034;-63
2021/06/16 01:41:05;;;;;;;10.20;3.80;;;18.30;98.20;;;;;;4993800;28;20481;-63
2021/06/16 01:43:31;;;;;;;5.68;3.85;;;18.30;98.30;;;;;;4990824;28;20030;-62
2021/06/16 01:46:00;;;;;;;5.60;3.22;;;18.20;98.70;;;;;;4989281;28;20415;-62
2021/06/16 01:48:28;;;;;;;6.43;3.70;;;18.20;98.90;;;;;;4994702;28;20081;-61
2021/06/16 01:50:55;;;;;;;6.65;4.07;;;18.20;99.10;;;;;;4989692;28;20456;-62
2021/06/16 01:53:22;;;;;;;9.85;3.90;;;18.10;99.30;;;;;;4987195;28;20022;-63
2021/06/16 01:55:48;;;;;;;5.82;3.83;;;18.10;99.50;;;;;;4987142;28;20491;-63
2021/06/16 01:58:17;;;;;;;6.53;3.50;;;18.20;99.40;;;;;;4989643;28;20043;-61
2021/06/16 02:00:43;;;;;;;7.45;4.18;;;18.20;99.50;;;;;;4991475;28;20110;-63
2021/06/16 02:03:09;;;;;;;6.18;4.15;;;18.20;99.70;;;;;;4985839;28;20038;-60
2021/06/16 02:05:35;;;;;;;15.35;4.45;;;18.10;99.90;;;;;;4973028;28;20084;-62
2021/06/16 02:08:12;;;;;;;7.35;4.30;;;18.10;99.90;;;;;;4990967;28;20022;-63
2021/06/16 02:10:42;;;;;;;8.30;5.57;;;18.00;99.90;;;;;;4986693;28;20077;-63
2021/06/16 02:13:09;;;;;;;9.18;4.65;;;18.00;99.90;;;;;;4989807;28;20014;-63
2021/06/16 02:15:57;;;;;;;7.47;4.15;;;17.90;99.90;;;;;;4988827;28;20041;-63
2021/06/16 02:18:29;;;;;;;5.72;4.15;;;17.90;99.90;;;;;;4989904;28;20393;-62
2021/06/16 02:20:55;;;;;;;6.85;4.28;;;17.90;99.90;;;;;;4990983;28;20050;-62
2021/06/16 02:23:22;;;;;;;8.63;3.65;;;17.90;99.90;;;;;;4989581;28;20062;-62
2021/06/16 02:25:48;;;;;;;7.55;3.85;;;17.90;99.90;;;;;;4987722;28;20034;-61
2021/06/16 02:28:14;;;;;;;6.80;4.25;;;17.80;99.90;;;;;;4995116;28;20088;-63
2021/06/16 02:30:39;;;;;;;6.60;3.88;;;17.80;99.90;;;;;;4989313;28;20042;-62
2021/06/16 02:33:05;;;;;;;5.90;4.53;;;17.80;99.90;;;;;;4988867;28;20015;-62
2021/06/16 02:35:31;;;;;;;12.02;4.32;;;17.80;99.90;;;;;;4990908;28;20034;-62
2021/06/16 02:38:07;;;;;;;9.15;4.55;;;17.80;99.90;;;;;;4989024;28;20034;-62
2021/06/16 02:40:33;;;;;;;6.53;4.40;;;17.80;99.90;;;;;;4990069;28;20403;-63
2021/06/16 02:43:00;;;;;;;9.25;5.03;;;17.70;99.90;;;;;;4989669;28;20066;-62
2021/06/16 02:45:27;;;;;;;6.32;4.70;;;17.70;99.90;;;;;;4991177;28;20089;-62
2021/06/16 02:47:54;;;;;;;11.80;4.78;;;17.70;99.90;;;;;;4989170;28;20034;-62
2021/06/16 02:50:26;;;;;;;7.75;4.90;;;17.70;99.90;;;;;;4985853;28;20034;-61
2021/06/16 02:52:53;;;;;;;9.15;5.38;;;17.70;99.90;;;;;;4989165;28;20030;-63
2021/06/16 02:55:23;;;;;;;8.48;4.43;;;17.70;99.90;;;;;;4987759;28;20042;-63
2021/06/16 02:57:50;;;;;;;10.45;4.43;;;17.70;99.90;;;;;;4983580;28;20037;-61
2021/06/16 03:00:16;;;;;;;6.40;4.13;;;17.70;99.90;;;;;;4987255;28;20026;-61
2021/06/16 03:02:46;;;;;;;7.63;5.07;;;17.70;99.90;;;;;;4986938;28;20488;-61
2021/06/16 03:05:18;;;;;;;10.80;4.35;;;17.70;99.90;;;;;;4988647;28;20026;-63
2021/06/16 03:07:45;;;;;;;6.05;4.05;;;17.70;99.90;;;;;;4983786;28;20027;-63
2021/06/16 03:10:11;;;;;;;12.32;4.95;;;17.80;99.90;;;;;;4984432;28;20109;-62
2021/06/16 03:12:38;;;;;;;9.25;4.47;;;17.80;99.90;;;;;;4989809;28;20526;-62
2021/06/16 03:15:06;;;;;;;9.45;4.38;;;17.80;99.90;;;;;;4987677;28;20089;-61
2021/06/16 03:17:33;;;;;;;8.75;4.70;;;17.80;99.90;;;;;;4993828;28;20033;-63
2021/06/16 03:20:01;;;;;;;6.45;4.22;;;17.80;99.90;;;;;;4988531;28;20396;-62
2021/06/16 03:22:28;;;;;;;6.28;4.50;;;17.80;99.90;;;;;;4987592;28;20088;-62
2021/06/16 03:24:55;;;;;;;11.63;4.57;;;17.80;99.90;;;;;;4988118;28;20030;-62
2021/06/16 03:27:22;;;;;;;8.00;4.80;;;17.90;99.90;;;;;;4987202;28;20037;-62
2021/06/16 03:29:52;;;;;;;6.65;4.90;;;17.90;99.90;;;;;;4986613;28;20026;-63
2021/06/16 03:32:19;;;;;;;7.15;4.13;;;17.90;99.90;;;;;;4987482;28;20547;-62
2021/06/16 03:34:45;;;;;;;7.32;4.55;;;18.00;99.90;;;;;;4987194;28;20389;-61
2021/06/16 03:37:12;;;;;;;8.60;4.72;;;18.00;99.90;;;;;;4986688;28;20037;-62
2021/06/16 03:39:38;;;;;;;6.72;4.53;;;18.00;99.90;;;;;;4985903;28;20030;-61
2021/06/16 03:42:05;;;;;;;6.95;4.53;;;18.00;99.90;;;;;;4982936;28;20027;-62
2021/06/16 03:44:31;;;;;;;9.30;4.30;;;18.00;99.90;;;;;;4988716;28;20042;-61
2021/06/16 03:46:58;;;;;;;9.18;4.85;;;18.00;99.90;;;;;;4989617;28;20094;-61
2021/06/16 03:49:25;;;;;;;4.85;4.00;;;18.00;99.90;;;;;;4987851;28;20026;-61
2021/06/16 03:51:51;;;;;;;7.93;4.70;;;18.10;99.90;;;;;;4988980;28;20459;-62
2021/06/16 03:54:20;;;;;;;9.48;4.45;;;18.00;99.90;;;;;;4987436;28;20022;-63
2021/06/16 03:56:47;;;;;;;10.25;5.40;;;18.00;99.90;;;;;;4988883;28;20019;-62
2021/06/16 03:59:14;;;;;;;7.35;5.03;;;18.00;99.90;;;;;;4986399;28;20030;-61
2021/06/16 04:01:40;;;;;;;9.80;4.53;;;18.00;99.90;;;;;;4984330;28;20026;-61
2021/06/16 04:04:07;;;;;;;8.25;4.68;;;18.00;99.90;;;;;;4988470;28;20104;-62
2021/06/16 04:06:38;;;;;;;12.18;6.63;;;18.00;99.90;;;;;;4989128;28;20488;-61
2021/06/16 04:09:04;;;;;;;8.23;4.72;;;18.10;99.90;;;;;;4987027;28;20046;-63
2021/06/16 04:11:32;;;;;;;9.27;4.70;;;18.10;99.90;;;;;;4989770;28;20038;-63
2021/06/16 04:13:58;;;;;;;6.72;4.80;;;18.20;99.90;;;;;;4986448;28;20034;-60
2021/06/16 04:16:26;;;;;;;7.07;4.50;;;18.30;99.90;;;;;;4991719;28;20030;-62
2021/06/16 04:18:52;;;;;;;6.30;4.75;;;18.30;99.90;;;;;;4989924;28;20053;-61
2021/06/16 04:21:18;;;;;;;9.27;4.78;;;18.40;99.90;;;;;;4992497;28;20092;-62
2021/06/16 04:23:44;;;;;;;9.05;4.97;;;18.60;99.90;;;;;;4992335;28;20028;-62
2021/06/16 04:26:10;;;;;;;7.03;4.85;;;18.70;99.90;;;;;;4993603;28;20034;-62
2021/06/16 04:28:35;;;;;;;5.70;4.68;;;18.80;99.90;;;;;;4990098;28;20030;-62
2021/06/16 04:31:01;;;;;;;12.18;5.05;;;18.90;99.90;;;;;;4990206;28;20093;-62
2021/06/16 04:33:27;;;;;;;6.95;4.47;;;19.10;99.90;;;;;;4992937;28;20069;-61
2021/06/16 04:35:52;;;;;;;6.63;5.05;;;19.50;99.90;;;;;;4984665;28;20785;-62
2021/06/16 04:38:18;;;;;;;8.90;5.05;;;19.80;99.90;;;;;;4992840;28;20098;-62
2021/06/16 04:40:43;;;;;;;6.93;4.57;;;20.30;99.30;;;;;;4987034;28;20201;-63
2021/06/16 04:43:09;;;;;;;5.93;4.03;;;20.70;98.30;;;;;;4993281;28;20129;-63
2021/06/16 04:45:35;;;;;;;5.13;4.13;;;21.00;97.20;;;;;;4993347;28;20041;-61
2021/06/16 04:48:00;;;;;;;10.00;4.30;;;21.30;96.70;;;;;;4989700;28;20105;-60
2021/06/16 04:50:26;;;;;;;10.40;4.88;;;21.70;95.90;;;;;;4992460;28;20545;-63
2021/06/16 04:52:51;;;;;;;6.15;4.65;;;22.10;95.00;;;;;;4987423;28;20030;-63
2021/06/16 04:55:17;;;;;;;12.50;4.65;;;22.50;94.30;;;;;;4993103;28;20041;-62
2021/06/16 04:57:43;;;;;;;5.63;3.67;;;22.90;93.60;;;;;;4991432;28;20041;-62
2021/06/16 05:00:10;;;;;;;7.95;4.10;;;23.30;93.10;;;;;;4990400;28;20101;-63
2021/06/16 05:02:36;;;;;;;8.90;3.70;;;23.70;92.50;;;;;;4992823;28;20026;-63
2021/06/16 05:05:03;;;;;;;3.78;3.28;;;24.50;90.70;;;;;;4990837;28;20404;-62
2021/06/16 05:07:28;;;;;;;8.15;3.63;;;24.80;90.30;;;;;;4989337;28;20022;-62
2021/06/16 05:09:54;;;;;;;9.93;3.58;;;25.30;88.30;;;;;;4986418;28;20049;-63
2021/06/16 05:12:19;;;;;;;7.60;3.25;;;26.20;84.80;;;;;;4992473;28;20030;-64
2021/06/16 05:14:45;;;;;;;5.40;3.05;;;26.50;82.90;;;;;;4990789;28;20034;-64
2021/06/16 05:17:11;;;;;;;6.93;3.00;;;27.60;78.40;;;;;;4984305;28;20080;-64
2021/06/16 05:19:36;;;;;;;5.53;3.13;;;28.00;77.50;;;;;;4990136;28;20399;-63
2021/06/16 05:22:11;;;;;;;5.82;3.08;;;28.10;75.70;;;;;;4991104;28;20039;-61
2021/06/16 05:24:37;;;;;;;4.60;2.72;;;27.90;75.50;;;;;;4991524;28;20037;-61
2021/06/16 05:27:03;;;;;;;7.93;3.47;;;28.40;73.70;;;;;;4991074;28;20030;-61
2021/06/16 05:29:28;;;;;;;7.38;3.30;;;28.70;73.00;;;;;;4991865;28;20022;-61
2021/06/16 05:31:54;;;;;;;7.45;3.70;;;28.90;70.80;;;;;;4989046;28;20088;-61
2021/06/16 05:34:19;;;;;;;4.57;2.70;;;29.10;71.30;;;;;;4990377;28;20393;-61
2021/06/16 05:36:45;;;;;;;8.95;3.10;;;29.40;69.60;;;;;;4991313;28;20518;-61
2021/06/16 05:39:11;;;;;;;5.35;2.88;;;29.70;69.40;;;;;;4990711;28;20903;-61
2021/06/16 05:41:36;;;;;;;7.10;2.92;;;30.40;67.60;;;;;;4989667;28;20030;-62
2021/06/16 05:44:02;;;;;;;7.13;2.95;;;30.20;66.80;;;;;;4987119;28;20480;-61
2021/06/16 05:46:28;;;;;;;6.72;3.45;;;29.80;65.70;;;;;;4990408;28;20652;-62
2021/06/16 05:48:53;;;;;;;6.65;2.88;;;29.40;65.70;;;;;;4993652;28;20399;-62
2021/06/16 05:51:19;;;;;;;8.90;3.20;;;28.70;68.60;;;;;;4988130;28;20026;-62
2021/06/16 05:53:44;;;;;;;4.78;3.08;;;28.60;67.80;;;;;;4990225;28;20045;-61
2021/06/16 05:56:10;;;;;;;9.80;3.03;;;28.60;68.70;;;;;;4987019;28;20026;-62
2021/06/16 05:58:36;;;;;;;5.60;2.97;;;28.60;69.50;;;;;;4988689;28;20504;-62
2021/06/16 06:01:01;;;;;;;4.70;3.08;;;29.50;67.20;;;;;;4993767;28;20070;-62
2021/06/16 06:03:27;;;;;;;11.48;3.83;;;29.40;67.80;;;;;;4988860;28;20035;-60
2021/06/16 06:05:52;;;;;;;11.93;3.47;;;29.90;65.80;;;;;;4989000;28;20065;-63
2021/06/16 06:08:18;;;;;;;6.53;3.20;;;30.00;66.40;;;;;;4989007;28;20030;-62
2021/06/16 06:10:43;;;;;;;9.68;3.45;;;30.10;66.10;;;;;;4993543;28;20022;-63
2021/06/16 06:13:09;;;;;;;6.85;3.20;;;30.40;65.50;;;;;;4994737;28;20030;-62
2021/06/16 06:15:35;;;;;;;4.78;3.00;;;30.00;65.80;;;;;;4995789;28;20523;-62
2021/06/16 06:18:00;;;;;;;8.60;3.47;;;29.70;66.10;;;;;;4992809;28;20451;-62
2021/06/16 06:20:26;;;;;;;6.38;3.35;;;29.30;66.80;;;;;;5002413;28;20026;-61
2021/06/16 06:22:52;;;;;;;10.20;3.55;;;29.20;67.30;;;;;;4986295;28;20027;-62
2021/06/16 06:25:17;;;;;;;6.22;3.00;;;29.40;66.80;;;;;;4992174;28;20057;-62
2021/06/16 06:27:43;;;;;;;4.03;2.70;;;29.50;67.30;;;;;;4989532;28;20023;-61
2021/06/16 06:30:09;;;;;;;3.58;2.97;;;29.90;67.80;;;;;;4989167;28;20015;-62
2021/06/16 06:32:35;;;;;;;5.60;2.75;;;30.40;66.60;;;;;;4988490;28;20026;-62
2021/06/16 06:35:01;;;;;;;7.22;2.70;;;31.00;63.30;;;;;;4990768;28;20426;-62
2021/06/16 06:37:26;;;;;;;3.20;2.15;;;31.20;63.40;;;;;;4988307;28;20037;-62
2021/06/16 06:39:52;;;;;;;5.03;2.90;;;31.90;63.10;;;;;;4994656;28;20034;-63
2021/06/16 06:42:18;;;;;;;7.28;2.78;;;31.40;63.90;;;;;;4984592;28;20481;-63
2021/06/16 06:44:44;;;;;;;8.43;2.88;;;31.20;63.50;;;;;;4989703;28;20411;-62
2021/06/16 06:47:09;;;;;;;4.88;2.72;;;30.70;63.30;;;;;;4986588;28;20030;-62
2021/06/16 06:49:35;;;;;;;3.95;2.88;;;31.10;64.00;;;;;;4989143;28;20026;-61
2021/06/16 06:52:01;;;;;;;6.63;2.90;;;31.40;64.10;;;;;;4987535;28;20027;-62
2021/06/16 06:54:26;;;;;;;5.13;2.47;;;31.90;61.80;;;;;;4989634;28;20053;-62
2021/06/16 06:56:52;;;;;;;4.47;3.10;;;32.90;62.70;;;;;;4990067;28;20028;-63
2021/06/16 06:59:18;;;;;;;6.20;3.15;;;33.00;60.60;;;;;;4984902;28;20054;-63
2021/06/16 07:01:43;;;;;;;3.38;2.80;;;33.20;60.40;;;;;;4988732;28;20061;-63
2021/06/16 07:04:09;;;;;;;7.60;2.85;;;33.70;58.00;;;;;;4987334;28;20094;-62
2021/06/16 07:06:35;;;;;;;8.20;3.03;;;33.80;57.60;;;;;;4988050;28;20488;-61
2021/06/16 07:09:01;;;;;;;5.53;3.10;;;33.90;58.20;;;;;;4989858;28;20030;-63
2021/06/16 07:11:27;;;;;;;5.63;3.15;;;34.50;56.00;;;;;;4990868;28;20034;-63
2021/06/16 07:13:52;;;;;;;4.75;2.67;;;34.10;57.00;;;;;;4989194;28;20062;-63
2021/06/16 07:16:18;;;;;;;6.28;3.00;;;34.60;57.00;;;;;;4989331;28;20081;-62
2021/06/16 07:18:44;;;;;;;5.88;3.10;;;35.70;55.30;;;;;;4989335;28;20026;-63
2021/06/16 07:21:11;;;;;;;7.10;3.15;;;35.10;55.60;;;;;;4988415;28;20031;-63
2021/06/16 07:23:37;;;;;;;4.78;2.15;;;35.00;55.00;;;;;;4987358;28;20022;-63
2021/06/16 07:26:03;;;;;;;5.45;2.72;;;36.00;56.00;;;;;;4990365;28;20109;-62
2021/06/16 07:28:28;;;;;;;4.70;3.03;;;35.50;54.30;;;;;;4988508;28;20122;-63
2021/06/16 07:30:54;;;;;;;3.72;3.00;;;36.50;55.10;;;;;;4983412;28;20041;-62
2021/06/16 07:33:20;;;;;;;9.00;3.00;;;36.70;52.20;;;;;;4983812;28;20053;-63
2021/06/16 07:35:45;;;;;;;8.70;3.33;;;36.60;52.10;;;;;;4987523;28;20352;-62
2021/06/16 07:38:13;;;;;;;7.65;3.33;;;36.60;52.30;;;;;;4991169;28;20033;-63
2021/06/16 07:40:38;;;;;;;11.63;4.50;;;36.70;52.50;;;;;;5001110;28;20029;-63
2021/06/16 07:43:04;;;;;;;4.60;2.95;;;37.00;53.00;;;;;;4991962;28;20563;-63
2021/06/16 07:45:31;;;;;;;7.03;3.15;;;36.70;52.30;;;;;;4999790;28;20713;-63
2021/06/16 07:47:57;;;;;;;5.28;3.17;;;36.50;51.10;;;;;;4991004;28;20027;-63
2021/06/16 07:50:23;;;;;;;3.88;3.20;;;36.20;52.10;;;;;;4999127;28;20010;-62
2021/06/16 07:52:49;;;;;;;7.32;3.22;;;36.10;52.30;;;;;;4994737;28;20022;-63
2021/06/16 07:55:15;;;;;;;7.50;3.28;;;35.40;53.40;;;;;;4998188;28;20076;-63
2021/06/16 07:57:41;;;;;;;8.60;3.33;;;35.60;54.40;;;;;;4996940;28;20116;-62
2021/06/16 08:00:08;;;;;;;4.95;3.10;;;36.40;53.30;;;;;;4971929;28;20042;-62
2021/06/16 08:02:33;;;;;;;5.65;3.20;;;36.80;53.00;;;;;;4989968;28;20103;-62
2021/06/16 08:04:59;;;;;;;8.55;3.33;;;36.70;53.00;;;;;;4990411;28;20471;-62
2021/06/16 08:07:25;;;;;;;5.30;3.40;;;37.00;52.40;;;;;;5000686;28;20026;-62
2021/06/16 08:09:51;;;;;;;5.57;3.70;;;37.80;52.80;;;;;;5002396;28;20113;-62
2021/06/16 08:12:16;;;;;;;6.68;3.78;;;38.10;51.20;;;;;;4999480;28;20076;-62
2021/06/16 08:14:43;;;;;;;5.07;3.45;;;37.70;51.30;;;;;;4995585;28;20026;-62
2021/06/16 08:17:09;;;;;;;4.25;3.22;;;38.20;51.60;;;;;;4998456;28;20026;-62
2021/06/16 08:19:36;;;;;;;7.05;3.60;;;38.40;49.90;;;;;;4987960;28;20027;-62
2021/06/16 08:22:04;;;;;;;5.68;3.80;;;38.60;49.80;;;;;;4982221;28;20124;-62
2021/06/16 08:24:30;;;;;;;7.72;4.00;;;38.50;49.80;;;;;;4994126;28;20037;-62
2021/06/16 08:26:56;;;;;;;5.57;3.95;;;38.40;49.30;;;;;;5004305;28;20026;-62
2021/06/16 08:29:21;;;;;;;7.47;3.55;;;38.10;50.50;;;;;;4992397;28;20038;-62
2021/06/16 08:31:47;;;;;;;5.90;4.03;;;38.10;49.10;;;;;;5000246;28;20044;-62
2021/06/16 08:34:12;;;;;;;5.43;3.78;;;38.50;49.80;;;;;;5000579;28;20026;-62
2021/06/16 08:36:40;;;;;;;9.60;3.55;;;38.80;49.10;;;;;;5001515;28;20404;-62
2021/06/16 08:39:07;;;;;;;7.43;3.88;;;39.20;48.90;;;;;;4987203;28;20036;-62
2021/06/16 08:41:34;;;;;;;5.28;3.50;;;38.60;48.60;;;;;;4989452;28;20066;-62
2021/06/16 08:44:00;;;;;;;5.22;3.65;;;38.60;48.70;;;;;;4985037;28;20026;-61
2021/06/16 08:46:26;;;;;;;6.57;3.60;;;37.90;49.90;;;;;;4989396;28;20034;-60
2021/06/16 08:48:52;;;;;;;6.25;3.65;;;38.20;48.90;;;;;;4987014;28;20027;-60
2021/06/16 08:51:18;;;;;;;6.30;3.83;;;37.90;49.20;;;;;;4988952;28;20080;-60
2021/06/16 08:53:45;;;;;;;8.45;3.90;;;37.70;50.50;;;;;;4985748;28;20105;-60
2021/06/16 08:56:12;;;;;;;8.73;4.15;;;38.00;50.60;;;;;;4982971;28;20026;-60
2021/06/16 08:58:41;;;;;;;3.92;3.47;;;38.30;48.50;;;;;;4988721;28;20030;-60
2021/06/16 09:01:09;;;;;;;5.18;3.10;;;38.80;49.30;;;;;;4983516;28;20042;-61
2021/06/16 09:03:36;;;;;;;8.90;3.90;;;38.20;48.60;;;;;;4971256;28;20035;-60
2021/06/16 09:06:15;;;;;;;10.32;3.90;;;37.90;48.40;;;;;;4993276;28;20042;-60
2021/06/16 09:08:51;;;;;;;7.10;4.13;;;37.70;50.20;;;;;;4992159;28;20026;-60
2021/06/16 09:11:21;;;;;;;5.90;3.85;;;37.10;50.20;;;;;;4992834;28;20029;-61
2021/06/16 09:13:47;;;;;;;5.95;3.55;;;37.80;50.00;;;;;;4991064;28;20031;-60
2021/06/16 09:16:30;;;;;;;5.45;3.47;;;37.90;50.10;;;;;;4992796;28;20117;-60
2021/06/16 09:18:58;;;;;;;4.88;3.70;;;37.70;48.70;;;;;;4990914;28;20786;-60
2021/06/16 09:21:40;;;;;;;7.63;3.80;;;37.50;49.90;;;;;;4991367;28;20113;-60
2021/06/16 09:24:07;;;;;;;16.38;4.45;;;36.80;49.80;;;;;;4991034;28;20037;-60
2021/06/16 09:26:38;;;;;;;17.83;4.18;;;37.10;50.00;;;;;;4992552;28;20022;-61
2021/06/16 09:29:04;;;;;;;11.55;3.85;;;37.30;51.00;;;;;;4988052;28;20053;-61
2021/06/16 09:31:38;;;;;;;5.00;3.85;;;38.00;49.20;;;;;;4990543;28;20416;-60
2021/06/16 09:34:16;;;;;;;7.15;3.65;;;37.60;48.60;;;;;;4986308;28;20031;-63
2021/06/16 09:36:56;;;;;;;6.63;3.60;;;37.30;49.40;;;;;;4983643;28;20497;-63
2021/06/16 09:39:26;;;;;;;7.47;3.80;;;37.00;50.50;;;;;;4988525;28;20117;-64
2021/06/16 09:42:11;;;;;;;10.52;3.85;;;36.50;50.30;;;;;;4996103;28;20108;-63
2021/06/16 09:44:50;;;;;;;9.18;3.47;;;37.30;49.10;;;;;;4998881;28;20120;-63
2021/06/16 09:47:24;;;;;;;10.38;3.92;;;37.80;48.60;;;;;;5001805;28;20109;-63
2021/06/16 09:49:49;;;;;;;6.28;3.42;;;37.30;49.10;;;;;;4999850;28;20608;-63
2021/06/16 09:52:36;;;;;;;8.60;3.70;;;37.60;49.70;;;;;;4999320;28;20149;-63
2021/06/16 09:55:24;;;;;;;4.13;3.35;;;37.20;49.70;;;;;;4995484;28;20034;-63
2021/06/16 09:58:05;;;;;;;9.60;4.18;;;37.80;50.70;;;;;;4996573;28;20521;-63
2021/06/16 10:00:36;;;;;;;6.20;3.92;;;37.70;48.40;;;;;;4989357;28;20042;-63
2021/06/16 10:03:08;;;;;;;8.00;4.03;;;37.80;48.20;;;;;;4998401;28;20072;-62
2021/06/16 10:05:34;;;;;;;5.25;3.78;;;37.30;48.60;;;;;;4994581;28;20285;-63
2021/06/16 10:07:59;;;;;;;5.55;3.88;;;37.00;50.00;;;;;;4983985;28;20058;-63
2021/06/16 10:10:25;;;;;;;8.98;4.15;;;37.10;48.80;;;;;;4995117;28;20120;-63
2021/06/16 10:12:52;;;;;;;6.07;3.90;;;36.00;51.30;;;;;;4994734;28;20046;-63
2021/06/16 10:15:20;;;;;;;6.22;3.65;;;35.50;51.80;;;;;;4991366;28;20109;-63
2021/06/16 10:17:49;;;;;;;5.07;3.53;;;35.60;51.70;;;;;;4991873;28;20117;-61
2021/06/16 10:20:16;;;;;;;4.47;3.30;;;35.50;52.10;;;;;;4993604;28;20084;-62
2021/06/16 10:22:42;;;;;;;9.27;3.63;;;35.50;53.40;;;;;;4993008;28;20038;-63
2021/06/16 10:25:09;;;;;;;6.30;3.50;;;35.70;53.70;;;;;;4985966;28;20038;-63
2021/06/16 10:28:02;;;;;;;6.22;3.85;;;35.60;49.60;;;;;;4983094;28;20022;-62
2021/06/16 10:30:31;;;;;;;7.28;3.38;;;35.10;51.50;;;;;;4992010;28;20026;-62
2021/06/16 10:32:57;;;;;;;6.35;4.18;;;34.80;53.50;;;;;;4985554;28;20023;-62
2021/06/16 10:35:29;;;;;;;8.32;3.72;;;34.70;53.80;;;;;;4990466;28;20031;-62
2021/06/16 10:38:16;;;;;;;8.73;3.67;;;34.60;54.60;;;;;;4984294;28;20041;-61
2021/06/16 10:40:51;;;;;;;7.07;3.55;;;34.40;53.10;;;;;;4988557;28;20034;-62
2021/06/16 10:43:19;;;;;;;4.63;3.33;;;33.90;54.00;;;;;;4987117;28;20038;-62
2021/06/16 10:45:56;;;;;;;11.23;3.95;;;33.80;54.00;;;;;;4986314;28;20034;-62
2021/06/16 10:48:40;;;;;;;6.78;3.35;;;33.80;53.60;;;;;;4983958;28;20065;-62
2021/06/16 10:51:05;;;;;;;5.35;3.80;;;33.90;54.80;;;;;;4986687;28;20081;-62
2021/06/16 10:53:31;;;;;;;5.70;3.40;;;33.80;52.80;;;;;;4989246;28;20034;-61
2021/06/16 10:55:57;;;;;;;9.02;3.70;;;33.50;54.00;;;;;;4991225;28;20034;-60
2021/06/16 10:58:25;;;;;;;6.68;3.55;;;33.40;55.10;;;;;;4991097;28;20100;-61
2021/06/16 11:01:16;;;;;;;9.27;3.70;;;33.60;53.00;;;;;;4985179;28;20035;-61
2021/06/16 11:03:51;;;;;;;4.90;3.08;;;33.40;54.10;;;;;;4981525;28;20034;-62
2021/06/16 11:06:34;;;;;;;8.50;2.90;;;33.60;53.30;;;;;;4989176;28;20026;-61
2021/06/16 11:09:03;;;;;;;6.20;3.53;;;33.70;52.60;;;;;;4968524;28;20038;-61
2021/06/16 11:11:47;;;;;;;4.88;3.30;;;33.70;52.90;;;;;;4980238;28;20023;-60
2021/06/16 11:14:47;;;;;;;7.95;2.92;;;33.80;53.30;;;;;;4984932;28;20022;-62
2021/06/16 11:17:27;;;;;;;5.47;3.53;;;33.80;53.50;;;;;;4946881;28;20128;-63
2021/06/16 11:20:07;;;;;;;5.78;3.45;;;33.50;53.50;;;;;;4987016;28;20037;-62
2021/06/16 11:22:38;;;;;;;5.70;3.20;;;33.40;52.50;;;;;;4990607;28;20164;-62
2021/06/16 11:25:07;;;;;;;7.35;3.15;;;33.50;53.80;;;;;;4982515;28;20033;-65
2021/06/16 11:27:54;;;;;;;5.78;2.90;;;33.50;52.10;;;;;;4985107;28;20387;-62
2021/06/16 11:30:38;;;;;;;6.93;3.40;;;33.40;52.90;;;;;;4983791;28;20109;-63
2021/06/16 11:33:15;;;;;;;5.97;3.75;;;33.20;52.00;;;;;;4987320;28;20076;-62
2021/06/16 11:35:45;;;;;;;6.65;3.22;;;33.10;52.70;;;;;;4989723;28;20082;-63
2021/06/16 11:38:32;;;;;;;10.75;3.13;;;32.90;52.20;;;;;;4988890;28;20682;-62
2021/06/16 11:41:17;;;;;;;6.35;3.10;;;32.70;52.90;;;;;;4989015;28;20085;-63
2021/06/16 11:43:47;;;;;;;11.95;4.15;;;32.70;54.00;;;;;;4987011;28;20381;-62
2021/06/16 11:46:39;;;;;;;7.68;3.20;;;32.70;53.50;;;;;;4997876;28;20054;-62
2021/06/16 11:49:11;;;;;;;7.65;3.90;;;32.80;55.20;;;;;;4985366;28;20400;-63
2021/06/16 11:51:42;;;;;;;7.15;3.60;;;32.80;53.80;;;;;;4989027;28;20056;-61
2021/06/16 11:54:34;;;;;;;8.77;2.88;;;32.70;53.10;;;;;;4991447;28;20386;-63
2021/06/16 11:57:08;;;;;;;5.38;3.53;;;32.60;53.60;;;;;;4994047;28;20041;-63
2021/06/16 11:59:40;;;;;;;5.55;3.40;;;32.80;53.60;;;;;;4984697;28;20038;-63
2021/06/16 12:02:11;;;;;;;5.30;3.50;;;32.70;52.60;;;;;;4990026;28;20037;-63
2021/06/16 12:04:53;;;;;;;3.85;2.85;;;32.50;54.00;;;;;;4979923;28;20034;-63
2021/06/16 12:07:29;;;;;;;4.53;3.10;;;32.50;53.70;;;;;;4987727;28;20435;-63
2021/06/16 12:10:02;;;;;;;5.65;2.97;;;32.50;55.20;;;;;;4968093;28;20053;-62
2021/06/16 12:12:28;;;;;;;;;;;32.50;52.50;;;;;;4981795;28;20046;-63
2021/06/16 12:15:12;;;;;;;7.38;2.78;;;32.70;51.20;;;;;;4983294;28;19957;-63
2021/06/16 12:18:01;;;;;;;9.55;2.80;;;32.80;50.30;;;;;;4979947;28;20037;-63
2021/06/16 12:20:48;;;;;;;10.55;2.60;;;32.80;49.60;;;;;;4984954;28;20042;-61
2021/06/16 12:23:38;;;;;;;10.38;3.20;;;32.70;50.00;;;;;;4982299;28;20035;-63
2021/06/16 12:26:11;;;;;;;5.45;3.33;;;32.70;51.10;;;;;;4982485;28;20034;-62
2021/06/16 12:28:39;;;;;;;7.50;2.92;;;32.70;49.70;;;;;;4983993;28;20137;-64
2021/06/16 12:31:09;;;;;;;9.23;3.38;;;32.70;51.30;;;;;;4981460;28;20102;-63
2021/06/16 12:33:41;;;;;;;12.73;3.63;;;32.70;50.90;;;;;;4988047;28;20033;-62
2021/06/16 12:36:17;;;;;;;9.45;3.35;;;32.70;53.10;;;;;;4991363;28;20130;-63
2021/06/16 12:38:55;;;;;;;4.60;3.33;;;32.50;51.60;;;;;;4981002;28;20058;-62
2021/06/16 12:41:20;;;;;;;8.02;3.13;;;32.40;52.50;;;;;;4991010;28;20026;-62
2021/06/16 12:43:46;;;;;;;9.88;3.75;;;32.40;53.60;;;;;;4992615;28;20428;-62
2021/06/16 12:46:12;;;;;;;12.82;4.00;;;32.20;52.40;;;;;;4991450;28;20429;-63
2021/06/16 12:48:37;;;;;;;5.50;3.20;;;31.80;52.70;;;;;;4993086;28;20439;-62
2021/06/16 12:51:04;;;;;;;4.13;3.28;;;31.60;53.90;;;;;;4989503;28;20101;-63
2021/06/16 12:53:39;;;;;;;8.68;3.38;;;31.60;54.60;;;;;;4990409;28;20029;-62
2021/06/16 12:56:06;;;;;;;6.55;4.00;;;31.60;52.90;;;;;;4989155;28;20025;-63